Time;durP1;ratioP1;P1;durP2;ratioP2;P2;SDS_P1;SDS_P2;PMS_P1;PMS_P2;Temp;Humidity;BMP_temperature;BMP_pressure;BME280_temperature;BME280_humidity;BME280_pressure;Samples;Min_cycle;Max_cycle;Signal;HPM_P1;HPM_P2
2021/07/17 00:01:39;;;;;;;0.20;0.20;;;;;;;17.35;56.05;97339.03;5076472;28;20043;-65
2021/07/17 00:04:05;;;;;;;0.40;0.40;;;;;;;17.39;56.05;97342.81;5073161;28;20041;-65
2021/07/17 00:06:32;;;;;;;0.30;0.30;;;;;;;17.40;56.06;97335.28;5072619;28;20562;-65
2021/07/17 00:08:58;;;;;;;0.30;0.30;;;;;;;17.37;56.04;97345.06;5072967;28;20040;-65
2021/07/17 00:11:23;;;;;;;0.38;0.38;;;;;;;17.37;56.34;97352.56;5072801;28;20551;-65
2021/07/17 00:13:50;;;;;;;0.40;0.40;;;;;;;17.38;56.38;97343.94;5072861;28;20048;-65
2021/07/17 00:16:18;;;;;;;1.30;0.90;;;;;;;17.40;56.23;97346.38;5072620;28;20065;-64
2021/07/17 00:18:45;;;;;;;0.10;0.10;;;;;;;17.41;56.36;97337.75;5073129;28;20459;-65
2021/07/17 00:21:11;;;;;;;0.35;0.35;;;;;;;17.43;56.22;97338.28;5054684;28;20430;-65
2021/07/17 00:23:36;;;;;;;0.40;0.40;;;;;;;17.45;56.23;97344.31;5072563;28;20055;-65
2021/07/17 00:26:03;;;;;;;0.20;0.20;;;;;;;17.47;56.44;97330.94;5054295;28;20463;-65
2021/07/17 00:28:30;;;;;;;0.35;0.35;;;;;;;17.54;56.29;97338.00;5072022;28;20094;-66
2021/07/17 00:30:56;;;;;;;0.40;0.40;;;;;;;17.59;56.09;97335.09;5072491;28;20064;-66
2021/07/17 00:33:22;;;;;;;0.17;0.17;;;;;;;17.62;56.12;97338.06;5072806;28;20577;-66
2021/07/17 00:35:48;;;;;;;0.25;0.25;;;;;;;17.65;56.14;97339.38;5072369;28;20040;-64
2021/07/17 00:38:14;;;;;;;0.30;0.30;;;;;;;17.65;56.20;97331.03;5072531;28;20537;-65
2021/07/17 00:40:40;;;;;;;0.22;0.22;;;;;;;17.65;56.41;97331.88;5072137;28;20040;-66
2021/07/17 00:43:06;;;;;;;0.40;0.40;;;;;;;17.65;56.52;97328.28;5072801;28;20416;-65
2021/07/17 00:45:31;;;;;;;0.47;0.47;;;;;;;17.63;56.35;97327.78;5072311;28;20040;-65
2021/07/17 00:47:57;;;;;;;0.45;0.45;;;;;;;17.64;56.37;97330.22;5071951;28;20086;-64
2021/07/17 00:50:24;;;;;;;0.10;0.10;;;;;;;17.65;56.44;97329.09;5072632;28;20040;-65
2021/07/17 00:52:50;;;;;;;0.65;0.65;;;;;;;17.67;56.43;97326.81;5072229;28;20166;-66
2021/07/17 00:55:16;;;;;;;1.35;0.55;;;;;;;17.72;56.37;97327.81;5072254;28;20044;-65
2021/07/17 00:57:47;;;;;;;1.55;0.70;;;;;;;17.76;56.38;97326.88;5071764;28;20076;-65
2021/07/17 01:00:15;;;;;;;0.47;0.47;;;;;;;17.80;56.45;97318.72;5072268;28;20533;-65
2021/07/17 01:03:06;;;;;;;0.20;0.20;;;;;;;17.83;56.38;97331.97;5072118;28;20041;-65
2021/07/17 01:05:32;;;;;;;0.20;0.20;;;;;;;17.85;56.49;97335.25;5071939;28;20048;-65
2021/07/17 01:07:58;;;;;;;0.47;0.43;;;;;;;17.88;56.43;97333.78;5072274;28;20569;-65
2021/07/17 01:10:25;;;;;;;0.47;0.47;;;;;;;17.88;56.37;97334.59;5072091;28;20171;-63
2021/07/17 01:12:52;;;;;;;0.57;0.57;;;;;;;17.93;56.22;97340.06;5072390;28;20051;-64
2021/07/17 01:15:18;;;;;;;0.30;0.30;;;;;;;18.01;56.36;97338.47;5072065;28;20041;-64
2021/07/17 01:17:45;;;;;;;0.22;0.22;;;;;;;18.11;56.25;97334.56;5071919;28;20055;-64
2021/07/17 01:20:14;;;;;;;0.40;0.40;;;;;;;18.24;56.02;97336.44;5071760;28;20049;-65
2021/07/17 01:22:41;;;;;;;0.10;0.10;;;;;;;18.34;55.64;97340.88;5072061;28;20048;-66
2021/07/17 01:25:14;;;;;;;0.40;0.20;;;;;;;18.43;55.58;97338.94;5071999;28;20040;-67
2021/07/17 01:27:41;;;;;;;0.10;0.10;;;;;;;18.53;55.42;97349.75;5071560;28;20051;-66
2021/07/17 01:30:12;;;;;;;0.32;0.32;;;;;;;18.58;55.45;97348.81;5071809;28;20139;-65
2021/07/17 01:32:38;;;;;;;0.13;0.13;;;;;;;18.60;55.54;97356.81;5071724;28;20048;-66
2021/07/17 01:35:04;;;;;;;0.10;0.10;;;;;;;18.59;55.61;97361.53;5071698;28;20034;-65
2021/07/17 01:37:30;;;;;;;0.30;0.30;;;;;;;18.56;55.59;97362.19;5071951;28;20040;-66
2021/07/17 01:39:55;;;;;;;2.65;0.22;;;;;;;18.58;55.76;97361.84;5072198;28;20051;-65
2021/07/17 01:42:21;;;;;;;1.00;0.82;;;;;;;18.62;55.70;97362.84;5071655;28;20033;-65
2021/07/17 01:44:47;;;;;;;0.57;0.57;;;;;;;18.64;55.75;97366.13;5071885;28;20036;-66
2021/07/17 01:47:14;;;;;;;0.73;0.73;;;;;;;18.65;55.66;97368.56;5071628;28;20612;-66
2021/07/17 01:49:41;;;;;;;1.25;0.52;;;;;;;18.66;55.69;97367.44;5071631;28;20033;-65
2021/07/17 01:52:08;;;;;;;0.15;0.15;;;;;;;18.63;55.96;97365.31;5071441;28;20040;-67
2021/07/17 01:54:39;;;;;;;0.20;0.20;;;;;;;18.60;56.01;97365.16;5071975;28;20049;-67
2021/07/17 01:57:05;;;;;;;0.50;0.50;;;;;;;18.61;56.03;97361.22;5071252;28;20497;-64
2021/07/17 01:59:39;;;;;;;0.30;0.30;;;;;;;18.68;55.67;97364.34;5055895;28;20056;-65
2021/07/17 02:02:08;;;;;;;0.47;0.47;;;;;;;18.77;55.48;97367.97;5083051;28;20043;-75
2021/07/17 02:04:34;;;;;;;0.47;0.47;;;;;;;18.93;55.26;97361.97;5086715;28;20047;-72
2021/07/17 02:07:01;;;;;;;0.50;0.50;;;;;;;19.06;55.02;97361.00;5075788;28;20491;-72
2021/07/17 02:09:27;;;;;;;0.60;0.57;;;;;;;19.20;54.61;97367.22;5075559;28;20056;-73
2021/07/17 02:11:53;;;;;;;0.45;0.45;;;;;;;19.70;53.59;97373.41;5075400;28;20048;-73
2021/07/17 02:14:19;;;;;;;3.83;1.85;;;;;;;20.21;52.51;97371.66;5074986;28;20040;-72
2021/07/17 02:16:45;;;;;;;0.85;0.85;;;;;;;20.40;52.29;97378.81;5075204;28;20483;-73
2021/07/17 02:19:29;;;;;;;0.40;0.40;;;;;;;20.49;52.33;97385.16;5075035;28;20090;-76
2021/07/17 02:21:55;;;;;;;1.20;0.30;;;;;;;20.48;52.33;97387.13;5075651;28;20056;-74
2021/07/17 02:24:20;;;;;;;0.40;0.40;;;;;;;20.42;52.64;97382.91;5075181;28;20040;-75
2021/07/17 02:26:46;;;;;;;0.15;0.15;;;;;;;20.65;52.28;97389.00;5056437;28;20048;-73
2021/07/17 02:29:13;;;;;;;0.10;0.10;;;;;;;20.67;52.20;97387.91;5075335;28;20040;-72
2021/07/17 02:31:41;;;;;;;0.30;0.30;;;;;;;20.67;52.21;97393.47;5074684;28;20060;-73
2021/07/17 02:34:08;;;;;;;0.17;0.17;;;;;;;20.75;52.17;97396.22;5074774;28;20605;-73
2021/07/17 02:36:33;;;;;;;0.22;0.22;;;;;;;20.87;52.29;97403.84;5074693;28;20066;-73
2021/07/17 02:38:59;;;;;;;0.40;0.40;;;;;;;20.94;51.89;97395.78;5074672;28;20127;-78
2021/07/17 02:41:26;;;;;;;0.30;0.30;;;;;;;20.96;51.84;97398.22;5074448;28;20083;-73
2021/07/17 02:43:53;;;;;;;0.15;0.15;;;;;;;21.06;51.70;97400.63;5074456;28;20051;-76
2021/07/17 02:46:19;;;;;;;0.10;0.10;;;;;;;21.25;51.46;97402.16;5074507;28;20395;-75
2021/07/17 02:48:45;;;;;;;0.10;0.10;;;;;;;21.51;50.88;97388.81;5075525;28;20051;-73
2021/07/17 02:51:12;;;;;;;0.10;0.10;;;;;;;21.84;50.47;97384.41;5075327;28;20441;-77
2021/07/17 02:53:38;;;;;;;1.52;0.50;;;;;;;22.27;49.73;97385.91;5074701;28;20052;-73
2021/07/17 02:56:04;;;;;;;0.10;0.10;;;;;;;22.80;48.57;97379.69;5074491;28;20465;-73
2021/07/17 02:58:30;;;;;;;0.22;0.22;;;;;;;23.46;47.39;97388.94;5074178;28;20044;-73
2021/07/17 03:00:56;;;;;;;0.10;0.10;;;;;;;24.08;46.51;97383.88;5074344;28;20047;-73
2021/07/17 03:03:22;;;;;;;0.20;0.20;;;;;;;24.01;46.64;97384.50;5074390;28;20044;-73
2021/07/17 03:05:49;;;;;;;0.30;0.30;;;;;;;23.82;47.24;97389.94;5074092;28;20044;-73
2021/07/17 03:08:24;;;;;;;0.30;0.30;;;;;;;23.85;47.61;97383.63;5074060;28;20079;-74
2021/07/17 03:10:51;;;;;;;0.15;0.15;;;;;;;23.91;47.50;97385.03;5073713;28;20040;-70
2021/07/17 03:13:17;;;;;;;0.20;0.20;;;;;;;23.93;47.24;97383.50;5073875;28;20119;-72
2021/07/17 03:15:42;;;;;;;0.10;0.10;;;;;;;23.88;47.59;97391.34;5074012;28;20450;-73
2021/07/17 03:18:09;;;;;;;0.32;0.30;;;;;;;23.79;47.98;97386.69;5073953;28;20510;-72
2021/07/17 03:20:35;;;;;;;0.20;0.20;;;;;;;23.59;48.27;97385.72;5074006;28;20388;-73
2021/07/17 03:23:00;;;;;;;0.98;0.30;;;;;;;23.41;48.48;97393.59;5073711;28;20066;-79
2021/07/17 03:25:26;;;;;;;0.70;0.32;;;;;;;23.40;48.98;97396.75;5077296;28;20070;-76
2021/07/17 03:27:52;;;;;;;0.08;0.08;;;;;;;23.46;48.87;97397.34;5078570;28;20032;-76
2021/07/17 03:30:18;;;;;;;0.38;0.38;;;;;;;23.44;48.51;97398.50;5074428;28;20056;-76
2021/07/17 03:32:44;;;;;;;0.28;0.22;;;;;;;23.31;49.03;97399.69;5074421;28;20066;-77
2021/07/17 03:35:10;;;;;;;0.15;0.15;;;;;;;23.07;49.59;97395.75;5074812;28;20036;-77
2021/07/17 03:37:36;;;;;;;0.13;0.13;;;;;;;22.97;49.60;97401.00;5074384;28;20052;-76
2021/07/17 03:40:03;;;;;;;0.40;0.40;;;;;;;22.73;50.11;97395.06;5074044;28;20094;-76
2021/07/17 03:42:29;;;;;;;0.10;0.10;;;;;;;22.62;50.09;97412.69;5073632;28;20123;-77
2021/07/17 03:44:55;;;;;;;0.20;0.15;;;;;;;22.55;50.32;97404.84;5073550;28;20124;-76
2021/07/17 03:47:21;;;;;;;1.25;0.20;;;;;;;22.49;50.21;97407.06;5073715;28;20063;-76
2021/07/17 03:49:47;;;;;;;0.10;0.10;;;;;;;22.40;50.28;97411.94;5074484;28;20502;-75
2021/07/17 03:52:12;;;;;;;1.98;0.45;;;;;;;22.23;50.38;97407.31;5074633;28;20127;-76
2021/07/17 03:54:38;;;;;;;0.30;0.30;;;;;;;22.17;50.31;97411.50;5073270;28;20116;-74
2021/07/17 03:57:04;;;;;;;0.10;0.10;;;;;;;22.02;50.69;97419.38;5073140;28;20044;-75
2021/07/17 03:59:30;;;;;;;0.20;0.20;;;;;;;21.88;50.61;97416.91;5073590;28;20123;-77
2021/07/17 04:01:55;;;;;;;2.25;0.25;;;;;;;21.84;50.88;97417.94;5073230;28;20068;-78
2021/07/17 04:04:21;;;;;;;0.20;0.20;;;;;;;21.84;50.74;97415.16;5055124;28;20037;-78
2021/07/17 04:06:47;;;;;;;0.20;0.20;;;;;;;21.81;50.52;97418.63;5073744;28;20052;-78
2021/07/17 04:09:13;;;;;;;0.13;0.13;;;;;;;21.74;50.67;97421.97;5082377;28;20043;-73
2021/07/17 04:11:38;;;;;;;0.10;0.10;;;;;;;21.72;50.48;97426.28;5083772;28;20387;-73
2021/07/17 04:14:04;;;;;;;0.20;0.20;;;;;;;21.74;50.44;97423.94;5075088;28;20044;-72
2021/07/17 04:16:30;;;;;;;0.32;0.32;;;;;;;21.69;50.42;97428.59;5072981;28;20119;-71
2021/07/17 04:18:56;;;;;;;0.35;0.35;;;;;;;21.65;50.52;97430.41;5072758;28;20046;-75
2021/07/17 04:21:23;;;;;;;0.10;0.10;;;;;;;21.52;50.49;97423.13;5071906;28;20040;-73
2021/07/17 04:23:49;;;;;;;0.28;0.28;;;;;;;21.50;50.48;97442.19;5072718;28;20426;-71
2021/07/17 04:26:15;;;;;;;0.10;0.10;;;;;;;21.46;50.43;97430.88;5072052;28;20048;-72
2021/07/17 04:28:42;;;;;;;0.20;0.20;;;;;;;21.53;50.51;97445.13;5072731;28;20072;-72
2021/07/17 04:31:07;;;;;;;0.20;0.20;;;;;;;21.62;50.07;97445.06;5072152;28;20410;-71
2021/07/17 04:33:33;;;;;;;0.55;0.40;;;;;;;21.73;49.81;97439.91;5072454;28;20044;-71
2021/07/17 04:35:59;;;;;;;0.00;0.00;;;;;;;21.83;49.72;97441.44;5072225;28;20075;-73
2021/07/17 04:38:25;;;;;;;0.60;0.60;;;;;;;21.89;49.47;97440.06;5072555;28;20503;-74
2021/07/17 04:40:51;;;;;;;0.20;0.20;;;;;;;21.96;49.43;97437.53;5072216;28;20040;-73
2021/07/17 04:43:16;;;;;;;0.10;0.10;;;;;;;22.07;49.28;97434.31;5072502;28;20468;-73
2021/07/17 04:45:42;;;;;;;0.10;0.10;;;;;;;22.12;48.98;97448.09;5072334;28;20044;-72
2021/07/17 04:48:08;;;;;;;0.10;0.10;;;;;;;22.20;48.85;97448.00;5072532;28;20040;-73
2021/07/17 04:50:38;;;;;;;0.20;0.20;;;;;;;22.17;48.88;97448.69;5072263;28;20050;-71
2021/07/17 04:53:07;;;;;;;0.20;0.20;;;;;;;22.14;49.37;97454.13;5072661;28;20512;-74
2021/07/17 04:55:33;;;;;;;0.20;0.20;;;;;;;22.10;49.22;97448.44;5072197;28;20041;-73
2021/07/17 04:57:58;;;;;;;0.08;0.08;;;;;;;22.17;49.03;97453.44;5071831;28;20059;-72
2021/07/17 05:00:25;;;;;;;0.10;0.10;;;;;;;22.34;48.53;97453.28;5064567;28;20182;-74
2021/07/17 05:02:54;;;;;;;1.55;0.75;;;;;;;22.44;48.45;97452.03;5061693;28;20422;-76
2021/07/17 05:05:22;;;;;;;2.08;0.85;;;;;;;22.57;48.20;97455.69;5062375;28;20028;-73
2021/07/17 05:07:49;;;;;;;0.00;0.00;;;;;;;22.58;48.15;97462.88;5061699;28;20036;-73
2021/07/17 05:10:18;;;;;;;0.10;0.10;;;;;;;22.51;48.66;97459.84;5060814;28;20036;-70
2021/07/17 05:12:45;;;;;;;0.10;0.10;;;;;;;22.55;48.22;97452.41;5059976;28;20525;-71
2021/07/17 05:15:12;;;;;;;0.20;0.20;;;;;;;22.75;48.19;97451.50;5062266;28;20064;-72
2021/07/17 05:17:39;;;;;;;0.32;0.32;;;;;;;23.02;47.38;97453.94;5067074;28;20056;-73
2021/07/17 05:20:06;;;;;;;0.80;0.35;;;;;;;23.42;46.75;97461.63;5064244;28;20063;-68
2021/07/17 05:22:32;;;;;;;0.32;0.32;;;;;;;23.72;46.06;97459.34;5064020;28;20032;-71
2021/07/17 05:24:58;;;;;;;1.27;0.38;;;;;;;23.91;45.89;97471.91;5048432;28;20039;-72
2021/07/17 05:27:24;;;;;;;0.10;0.10;;;;;;;24.45;45.21;97468.63;5068065;28;20045;-71
2021/07/17 05:29:49;;;;;;;0.30;0.30;;;;;;;24.77;44.72;97471.50;5060625;28;20103;-71
2021/07/17 05:32:16;;;;;;;0.38;0.17;;;;;;;25.36;43.74;97472.56;5061069;28;20091;-72
2021/07/17 05:34:42;;;;;;;0.10;0.10;;;;;;;25.71;43.27;97473.75;5065617;28;20048;-73
2021/07/17 05:37:09;;;;;;;0.22;0.22;;;;;;;26.11;42.70;97481.03;5063672;28;20041;-71
2021/07/17 05:39:36;;;;;;;0.10;0.10;;;;;;;26.52;42.16;97470.16;5065336;28;20040;-73
2021/07/17 05:42:03;;;;;;;0.20;0.20;;;;;;;26.84;41.75;97477.59;5064164;28;20037;-74
2021/07/17 05:44:28;;;;;;;0.10;0.10;;;;;;;26.67;42.50;97484.50;5065756;28;20398;-71
2021/07/17 05:46:54;;;;;;;0.20;0.20;;;;;;;26.83;42.05;97490.88;5060180;28;20037;-71
2021/07/17 05:49:20;;;;;;;0.30;0.30;;;;;;;27.21;41.45;97477.81;5044865;28;20526;-72
2021/07/17 05:51:46;;;;;;;0.30;0.30;;;;;;;27.39;41.45;97494.22;5055491;28;20067;-73
2021/07/17 05:54:13;;;;;;;0.10;0.10;;;;;;;27.47;41.18;97484.66;5055563;28;20146;-73
2021/07/17 05:56:39;;;;;;;0.03;0.03;;;;;;;27.59;41.08;97492.94;5055334;28;20049;-79
2021/07/17 05:59:05;;;;;;;0.10;0.10;;;;;;;27.64;41.03;97488.97;5057502;28;20052;-68
2021/07/17 06:01:30;;;;;;;0.15;0.15;;;;;;;27.60;41.17;97503.00;5063673;28;20075;-67
2021/07/17 06:03:56;;;;;;;0.13;0.13;;;;;;;27.49;41.75;97487.13;5063547;28;20131;-67
2021/07/17 06:06:22;;;;;;;0.10;0.10;;;;;;;27.36;41.98;97489.34;5065281;28;20032;-65
2021/07/17 06:08:49;;;;;;;0.10;0.10;;;;;;;27.22;41.74;97487.06;5063910;28;20487;-65
2021/07/17 06:11:15;;;;;;;0.20;0.20;;;;;;;27.15;41.79;97495.41;5059001;28;20094;-72
2021/07/17 06:13:40;;;;;;;0.20;0.20;;;;;;;27.17;41.88;97498.69;5067614;28;20045;-74
2021/07/17 06:16:06;;;;;;;0.10;0.10;;;;;;;27.28;41.65;97494.84;5077257;28;20513;-71
2021/07/17 06:18:32;;;;;;;0.10;0.10;;;;;;;27.35;41.42;97496.19;5077474;28;20044;-72
2021/07/17 06:20:59;;;;;;;5.68;0.32;;;;;;;27.30;41.45;97497.28;5052405;28;20047;-74
2021/07/17 06:24:04;;;;;;;0.10;0.10;;;;;;;27.25;41.59;97481.50;5053443;28;20083;-75
2021/07/17 06:26:30;;;;;;;0.40;0.40;;;;;;;27.35;41.45;97491.34;5053144;28;20071;-73
2021/07/17 06:28:55;;;;;;;0.20;0.20;;;;;;;27.44;40.87;97493.91;5050353;28;20119;-73
2021/07/17 06:31:21;;;;;;;0.10;0.10;;;;;;;27.55;40.61;97494.88;5055392;28;20070;-75
2021/07/17 06:33:47;;;;;;;0.10;0.10;;;;;;;27.65;40.11;97489.75;5052120;28;20046;-70
2021/07/17 06:36:13;;;;;;;0.10;0.10;;;;;;;27.62;40.00;97492.16;5052209;28;20024;-72
2021/07/17 06:38:39;;;;;;;0.55;0.55;;;;;;;27.38;40.23;97495.41;5052914;28;20578;-70
2021/07/17 06:41:05;;;;;;;0.30;0.30;;;;;;;27.58;40.20;97493.31;5048665;28;20045;-70
2021/07/17 06:43:31;;;;;;;1.08;0.55;;;;;;;28.00;39.24;97491.47;5052801;28;20498;-69
2021/07/17 06:45:56;;;;;;;0.10;0.10;;;;;;;28.18;39.16;97488.88;5053345;28;20052;-74
2021/07/17 06:48:23;;;;;;;0.10;0.10;;;;;;;28.31;38.65;97493.91;5051194;28;20407;-71
2021/07/17 06:50:48;;;;;;;0.30;0.30;;;;;;;28.58;38.31;97490.97;5053724;28;20037;-73
2021/07/17 06:53:15;;;;;;;0.22;0.22;;;;;;;28.90;37.71;97493.34;5053808;28;20044;-71
2021/07/17 06:55:41;;;;;;;0.10;0.10;;;;;;;29.11;37.34;97489.06;5055655;28;20036;-72
2021/07/17 06:58:08;;;;;;;0.17;0.10;;;;;;;29.29;37.37;97490.03;5050731;28;20037;-69
2021/07/17 07:00:35;;;;;;;0.20;0.20;;;;;;;29.48;36.91;97499.47;5050954;28;20124;-69
2021/07/17 07:03:02;;;;;;;0.17;0.17;;;;;;;29.66;36.70;97496.75;5050603;28;20163;-68
2021/07/17 07:05:28;;;;;;;0.10;0.10;;;;;;;29.82;36.48;97499.31;5052742;28;20150;-71
2021/07/17 07:07:55;;;;;;;0.10;0.10;;;;;;;29.96;36.50;97493.75;5054259;28;20491;-71
2021/07/17 07:10:21;;;;;;;0.20;0.20;;;;;;;30.17;36.23;97492.22;5055189;28;20110;-69
2021/07/17 07:12:47;;;;;;;0.10;0.10;;;;;;;30.32;35.92;97491.06;5041592;28;20053;-70
2021/07/17 07:15:13;;;;;;;0.98;0.73;;;;;;;30.38;35.76;97495.09;5052325;28;20090;-70
2021/07/17 07:17:39;;;;;;;0.43;0.43;;;;;;;30.26;36.28;97494.69;5054215;28;20097;-68
2021/07/17 07:20:07;;;;;;;0.17;0.17;;;;;;;30.10;36.30;97481.66;5054335;28;20045;-69
2021/07/17 07:22:33;;;;;;;0.00;0.00;;;;;;;30.12;36.18;97501.06;5052331;28;20852;-69
2021/07/17 07:24:59;;;;;;;0.10;0.10;;;;;;;30.10;36.40;97486.53;5050354;28;20045;-66
2021/07/17 07:27:24;;;;;;;0.22;0.22;;;;;;;30.01;36.57;97489.72;5056483;28;20040;-72
2021/07/17 07:29:50;;;;;;;0.05;0.05;;;;;;;30.00;36.40;97496.56;5052902;28;20165;-74
2021/07/17 07:32:16;;;;;;;0.10;0.10;;;;;;;29.92;36.55;97501.41;5056971;28;20040;-72
2021/07/17 07:34:42;;;;;;;0.65;0.30;;;;;;;29.84;36.58;97499.72;5053886;28;20041;-73
2021/07/17 07:37:08;;;;;;;0.20;0.20;;;;;;;29.86;36.41;97500.16;5050659;28;20478;-71
2021/07/17 07:39:35;;;;;;;0.10;0.10;;;;;;;29.89;36.25;97493.69;5052113;28;20501;-70
2021/07/17 07:42:01;;;;;;;0.70;0.30;;;;;;;29.96;36.15;97504.22;5051709;28;20037;-68
2021/07/17 07:44:28;;;;;;;0.20;0.20;;;;;;;29.87;36.34;97507.41;5037934;28;20042;-69
2021/07/17 07:46:55;;;;;;;1.67;0.10;;;;;;;29.87;36.15;97507.41;5033044;28;20072;-68
2021/07/17 07:49:20;;;;;;;0.10;0.10;;;;;;;29.73;36.25;97502.47;5033343;28;20046;-68
2021/07/17 07:51:46;;;;;;;0.10;0.10;;;;;;;29.61;36.42;97505.59;5032622;28;20056;-68
2021/07/17 07:54:52;;;;;;;0.10;0.10;;;;;;;29.60;36.16;97498.34;5033302;28;20046;-66
2021/07/17 07:57:57;;;;;;;0.38;0.30;;;;;;;29.61;35.86;97500.78;5032087;28;20041;-69
2021/07/17 08:01:03;;;;;;;0.10;0.10;;;;;;;29.53;36.04;97499.09;5032956;28;20042;-72
2021/07/17 08:04:08;;;;;;;0.20;0.20;;;;;;;29.53;35.97;97505.59;5033212;28;20041;-67
2021/07/17 08:07:13;;;;;;;0.13;0.13;;;;;;;29.29;36.56;97500.56;5032571;28;20053;-67
2021/07/17 08:10:19;;;;;;;0.10;0.10;;;;;;;29.31;36.14;97501.78;5032832;28;20037;-68
2021/07/17 08:13:24;;;;;;;0.10;0.10;;;;;;;29.42;35.73;97499.03;5032750;28;20148;-67
2021/07/17 08:15:50;;;;;;;0.30;0.30;;;;;;;29.51;35.83;97512.81;5048914;28;20049;-67
2021/07/17 08:18:17;;;;;;;0.15;0.15;;;;;;;29.57;35.63;97493.47;5075253;28;20128;-71
2021/07/17 08:20:43;;;;;;;0.10;0.10;;;;;;;29.60;35.48;97504.00;5047264;28;20033;-64
2021/07/17 08:23:10;;;;;;;0.03;0.03;;;;;;;29.58;35.55;97492.25;5052746;28;20561;-67
2021/07/17 08:25:36;;;;;;;0.10;0.10;;;;;;;29.54;35.54;97495.88;5052509;28;20052;-65
2021/07/17 08:28:03;;;;;;;0.03;0.03;;;;;;;29.53;35.46;97499.09;5051732;28;20041;-65
2021/07/17 08:30:28;;;;;;;0.10;0.10;;;;;;;29.53;35.30;97499.94;5052195;28;20053;-65
2021/07/17 08:32:56;;;;;;;1.08;0.32;;;;;;;29.49;35.25;97503.91;5052276;28;20488;-65
2021/07/17 08:35:22;;;;;;;0.00;0.00;;;;;;;29.39;35.39;97499.00;5052144;28;20156;-63
2021/07/17 08:37:48;;;;;;;0.10;0.10;;;;;;;29.25;35.64;97505.34;5050758;28;20041;-69
2021/07/17 08:40:14;;;;;;;0.30;0.30;;;;;;;29.12;35.56;97493.50;5052591;28;20036;-74
2021/07/17 08:42:45;;;;;;;0.10;0.10;;;;;;;29.09;35.90;97502.75;5052681;28;20475;-63
2021/07/17 08:45:12;;;;;;;0.15;0.15;;;;;;;28.90;35.85;97503.81;5042220;28;20500;-71
2021/07/17 08:47:41;;;;;;;0.00;0.00;;;;;;;28.58;36.21;97507.91;5031155;28;20420;-67
2021/07/17 08:50:10;;;;;;;0.43;0.43;;;;;;;28.22;36.81;97496.19;5031628;28;20041;-66
2021/07/17 08:52:36;;;;;;;0.20;0.20;;;;;;;27.91;36.80;97503.03;5032925;28;20077;-70
2021/07/17 08:55:08;;;;;;;0.10;0.10;;;;;;;27.61;37.17;97506.63;5032238;28;20492;-71
2021/07/17 08:57:34;;;;;;;0.20;0.20;;;;;;;27.32;37.77;97506.16;5031704;28;20076;-70
2021/07/17 09:00:01;;;;;;;0.10;0.10;;;;;;;27.00;37.93;97506.47;5032368;28;20495;-71
2021/07/17 09:02:27;;;;;;;3.15;1.27;;;;;;;26.60;38.64;97509.72;5032316;28;20057;-69
2021/07/17 09:04:53;;;;;;;0.10;0.10;;;;;;;26.26;38.68;97515.09;5032483;28;20045;-71
2021/07/17 09:07:19;;;;;;;0.22;0.22;;;;;;;26.04;38.64;97512.66;5031678;28;20061;-69
2021/07/17 09:09:46;;;;;;;0.20;0.20;;;;;;;25.82;39.20;97510.50;5032484;28;20045;-69
2021/07/17 09:12:23;;;;;;;0.10;0.10;;;;;;;25.71;38.84;97511.09;5032187;28;20075;-71
2021/07/17 09:14:50;;;;;;;0.22;0.20;;;;;;;25.61;38.59;97522.09;5032105;28;20042;-70
2021/07/17 09:17:24;;;;;;;0.10;0.10;;;;;;;25.30;39.23;97512.50;5031806;28;20072;-71
2021/07/17 09:19:59;;;;;;;0.30;0.30;;;;;;;25.12;38.84;97510.06;5030758;28;20500;-68
2021/07/17 09:22:35;;;;;;;0.20;0.20;;;;;;;25.06;39.30;97508.72;5032463;28;20168;-69
2021/07/17 09:25:11;;;;;;;1.77;0.52;;;;;;;24.95;38.93;97518.88;5032264;28;20076;-69
2021/07/17 09:27:37;;;;;;;0.10;0.10;;;;;;;24.78;39.19;97520.84;5031289;28;20045;-68
2021/07/17 09:30:24;;;;;;;0.15;0.15;;;;;;;24.64;39.42;97512.03;5031866;28;20106;-66
2021/07/17 09:33:06;;;;;;;0.47;0.30;;;;;;;24.60;39.28;97505.50;5032046;28;20041;-67
2021/07/17 09:35:33;;;;;;;0.32;0.32;;;;;;;24.63;39.07;97511.25;5032117;28;20130;-67
2021/07/17 09:38:01;;;;;;;0.15;0.10;;;;;;;24.59;38.54;97507.50;5032242;28;20033;-65
2021/07/17 09:40:40;;;;;;;0.10;0.10;;;;;;;24.41;38.77;97498.59;5031876;28;20492;-67
2021/07/17 09:43:06;;;;;;;0.00;0.00;;;;;;;24.29;38.95;97509.84;5032446;28;20124;-68
2021/07/17 09:45:41;;;;;;;0.10;0.10;;;;;;;24.17;39.27;97498.69;5032262;28;20478;-70
2021/07/17 09:48:29;;;;;;;1.27;0.32;;;;;;;24.18;38.64;97503.16;5031872;28;20040;-66
2021/07/17 09:50:56;;;;;;;0.10;0.10;;;;;;;24.24;38.81;97504.50;5031910;28;20046;-66
2021/07/17 09:53:44;;;;;;;0.10;0.10;;;;;;;24.33;38.54;97501.56;5031952;28;20084;-67
2021/07/17 09:56:24;;;;;;;0.20;0.20;;;;;;;24.44;38.28;97500.69;5031525;28;20419;-66
2021/07/17 09:58:51;;;;;;;0.22;0.22;;;;;;;24.58;37.85;97503.03;5031635;28;20120;-69
2021/07/17 10:01:23;;;;;;;0.32;0.17;;;;;;;24.79;37.54;97511.25;5032115;28;20049;-66
2021/07/17 10:03:51;;;;;;;0.80;0.35;;;;;;;24.92;37.19;97505.56;5032253;28;20389;-68
2021/07/17 10:06:31;;;;;;;0.10;0.10;;;;;;;25.21;36.57;97509.09;5031955;28;20041;-67
2021/07/17 10:08:59;;;;;;;0.00;0.00;;;;;;;25.56;36.15;97508.31;5031728;28;20051;-66
2021/07/17 10:11:27;;;;;;;0.13;0.13;;;;;;;25.89;35.38;97508.66;5031909;28;20087;-70
2021/07/17 10:13:53;;;;;;;0.55;0.38;;;;;;;26.31;35.07;97512.78;5032135;28;20044;-66
2021/07/17 10:16:24;;;;;;;0.10;0.10;;;;;;;26.55;34.47;97505.22;5031951;28;20041;-67
2021/07/17 10:18:52;;;;;;;0.10;0.10;;;;;;;26.74;34.49;97507.19;5034518;28;20041;-72
2021/07/17 10:21:18;;;;;;;0.13;0.13;;;;;;;26.88;34.62;97501.84;5049897;28;20046;-70
2021/07/17 10:23:44;;;;;;;0.10;0.10;;;;;;;26.90;34.39;97502.25;5036404;28;20042;-72
2021/07/17 10:26:11;;;;;;;3.20;0.30;;;;;;;26.83;34.39;97504.94;5035521;28;20041;-71
2021/07/17 10:28:38;;;;;;;0.85;0.40;;;;;;;26.74;34.76;97505.19;5036022;28;20049;-68
2021/07/17 10:31:05;;;;;;;0.20;0.20;;;;;;;26.60;35.32;97504.09;5051274;28;20056;-68
2021/07/17 10:33:32;;;;;;;0.57;0.10;;;;;;;26.46;35.02;97494.19;5062646;28;20041;-66
2021/07/17 10:36:03;;;;;;;0.20;0.20;;;;;;;26.35;35.46;97498.78;5055237;28;20033;-66
2021/07/17 10:38:29;;;;;;;0.20;0.20;;;;;;;26.13;35.22;97498.34;5054996;28;20178;-69
2021/07/17 10:40:57;;;;;;;0.38;0.38;;;;;;;25.96;35.85;97499.59;5054968;28;20498;-66
2021/07/17 10:43:23;;;;;;;0.57;0.20;;;;;;;25.73;36.53;97505.09;5055134;28;20032;-67
2021/07/17 10:45:50;;;;;;;0.10;0.10;;;;;;;25.57;36.45;97498.72;5054980;28;20487;-68
2021/07/17 10:48:26;;;;;;;0.03;0.03;;;;;;;25.44;36.53;97500.81;5054552;28;20041;-66
2021/07/17 10:50:57;;;;;;;0.00;0.00;;;;;;;25.31;36.98;97500.94;5055241;28;20049;-70
2021/07/17 10:53:42;;;;;;;0.20;0.20;;;;;;;25.25;36.71;97504.34;5055058;28;20098;-66
2021/07/17 10:56:27;;;;;;;0.10;0.10;;;;;;;25.31;36.79;97505.75;5054237;28;20041;-66
2021/07/17 10:58:56;;;;;;;0.05;0.05;;;;;;;25.35;36.26;97501.84;5053674;28;20099;-66
2021/07/17 11:01:22;;;;;;;0.10;0.10;;;;;;;25.33;36.52;97506.19;5052381;28;20048;-67
2021/07/17 11:03:48;;;;;;;0.47;0.30;;;;;;;25.33;36.45;97500.56;5054258;28;20040;-69
2021/07/17 11:06:36;;;;;;;0.00;0.00;;;;;;;25.37;35.97;97495.84;5054302;28;20052;-66
2021/07/17 11:09:30;;;;;;;0.10;0.10;;;;;;;25.39;36.32;97498.31;5053571;28;20041;-67
2021/07/17 11:12:25;;;;;;;0.15;0.15;;;;;;;25.36;36.19;97497.03;5054062;28;20441;-66
2021/07/17 11:14:56;;;;;;;0.10;0.10;;;;;;;25.32;35.91;97490.50;5054126;28;20048;-66
2021/07/17 11:17:54;;;;;;;0.10;0.10;;;;;;;25.36;36.06;97488.59;5036156;28;20053;-69
2021/07/17 11:20:32;;;;;;;0.20;0.20;;;;;;;25.37;35.96;97484.63;5001261;28;20570;-68
2021/07/17 11:23:11;;;;;;;0.35;0.35;;;;;;;25.41;35.58;97485.53;5034094;28;20050;-69
2021/07/17 11:25:38;;;;;;;0.10;0.10;;;;;;;25.32;36.03;97482.91;5034126;28;20045;-67
2021/07/17 11:28:04;;;;;;;0.00;0.00;;;;;;;25.26;35.65;97487.13;5033606;28;20045;-68
2021/07/17 11:30:36;;;;;;;0.10;0.10;;;;;;;25.18;35.68;97488.97;5033385;28;20073;-68
2021/07/17 11:33:05;;;;;;;0.13;0.13;;;;;;;25.02;36.37;97479.75;5034273;28;20045;-67
2021/07/17 11:35:41;;;;;;;0.22;0.13;;;;;;;24.99;36.31;97477.66;5033706;28;20109;-67
2021/07/17 11:38:08;;;;;;;1.25;0.22;;;;;;;25.09;36.03;97484.69;5033811;28;20041;-68
2021/07/17 11:40:36;;;;;;;0.32;0.30;;;;;;;25.13;35.93;97489.25;5048678;28;20033;-67
2021/07/17 11:43:04;;;;;;;0.20;0.20;;;;;;;25.02;35.93;97490.97;5033407;28;20522;-65